Terminal Aerodrome Forecast
Issued by NWS

Home | Current Version | Previous Version | Text Only | Print | Product List | Glossary On
Versions: 1 2 3 4 5 6 7 8 9 10 11 12 13
458
FTUS46 KLOX 281120
TAFPRB
TAF
KPRB 281120Z 2812/2912 VRB03KT P6SM SKC
     FM282000 21015G20KT P6SM SCT250
     FM290300 21008KT P6SM SCT250
     FM290600 VRB03KT P6SM SCT250=

USA.gov is the U.S. government's official web portal to all federal, state and local government web resources and services.